sensor_id;sensor_type;location;lat;lon;timestamp;temperature;humidity
46784;DHT22;32544;52.832;13.816;2023-07-31T00:00:35;25.60;51.00
46784;DHT22;32544;52.832;13.816;2023-07-31T00:01:35;25.60;51.00
46784;DHT22;32544;52.832;13.816;2023-07-31T00:02:36;25.60;51.00
46784;DHT22;32544;52.832;13.816;2023-07-31T00:03:36;25.60;51.00
46784;DHT22;32544;52.832;13.816;2023-07-31T00:04:37;25.50;50.90
46784;DHT22;32544;52.832;13.816;2023-07-31T00:05:38;25.50;50.90
46784;DHT22;32544;52.832;13.816;2023-07-31T00:06:38;25.50;51.00
46784;DHT22;32544;52.832;13.816;2023-07-31T00:07:39;25.50;51.00
46784;DHT22;32544;52.832;13.816;2023-07-31T00:08:39;25.50;51.00
46784;DHT22;32544;52.832;13.816;2023-07-31T00:09:40;25.60;51.00
46784;DHT22;32544;52.832;13.816;2023-07-31T00:10:40;25.60;51.00
46784;DHT22;32544;52.832;13.816;2023-07-31T00:11:41;25.60;51.30
46784;DHT22;32544;52.832;13.816;2023-07-31T00:12:42;25.60;51.00
46784;DHT22;32544;52.832;13.816;2023-07-31T00:13:43;25.50;50.90
46784;DHT22;32544;52.832;13.816;2023-07-31T00:14:43;25.50;50.90
46784;DHT22;32544;52.832;13.816;2023-07-31T00:15:44;25.60;51.00
46784;DHT22;32544;52.832;13.816;2023-07-31T00:16:44;25.50;51.60
46784;DHT22;32544;52.832;13.816;2023-07-31T00:17:45;25.50;51.00
46784;DHT22;32544;52.832;13.816;2023-07-31T00:18:45;25.50;51.00
46784;DHT22;32544;52.832;13.816;2023-07-31T00:19:46;25.50;50.90
46784;DHT22;32544;52.832;13.816;2023-07-31T00:20:49;25.60;51.00
46784;DHT22;32544;52.832;13.816;2023-07-31T00:21:49;25.60;51.00
46784;DHT22;32544;52.832;13.816;2023-07-31T00:22:50;25.60;51.00
46784;DHT22;32544;52.832;13.816;2023-07-31T00:23:51;25.60;51.00
46784;DHT22;32544;52.832;13.816;2023-07-31T00:24:51;25.60;51.00
46784;DHT22;32544;52.832;13.816;2023-07-31T00:25:52;25.60;50.90
46784;DHT22;32544;52.832;13.816;2023-07-31T00:26:52;25.60;50.90
46784;DHT22;32544;52.832;13.816;2023-07-31T00:27:54;25.60;50.90
46784;DHT22;32544;52.832;13.816;2023-07-31T00:28:54;25.60;50.90
46784;DHT22;32544;52.832;13.816;2023-07-31T00:29:55;25.60;50.90
46784;DHT22;32544;52.832;13.816;2023-07-31T00:30:55;25.60;50.90
46784;DHT22;32544;52.832;13.816;2023-07-31T00:32:00;25.60;50.90
46784;DHT22;32544;52.832;13.816;2023-07-31T00:33:00;25.60;50.90
46784;DHT22;32544;52.832;13.816;2023-07-31T00:34:01;25.60;50.90
46784;DHT22;32544;52.832;13.816;2023-07-31T00:35:01;25.60;50.90
46784;DHT22;32544;52.832;13.816;2023-07-31T00:36:05;25.60;50.90
46784;DHT22;32544;52.832;13.816;2023-07-31T00:37:05;25.60;50.90
46784;DHT22;32544;52.832;13.816;2023-07-31T00:38:07;25.60;50.90
46784;DHT22;32544;52.832;13.816;2023-07-31T00:39:07;25.60;50.90
46784;DHT22;32544;52.832;13.816;2023-07-31T00:40:09;25.60;50.90
46784;DHT22;32544;52.832;13.816;2023-07-31T00:41:10;25.60;50.90
46784;DHT22;32544;52.832;13.816;2023-07-31T00:42:11;25.60;50.90
46784;DHT22;32544;52.832;13.816;2023-07-31T00:43:11;25.60;50.90
46784;DHT22;32544;52.832;13.816;2023-07-31T00:44:12;25.60;50.90
46784;DHT22;32544;52.832;13.816;2023-07-31T00:45:12;25.60;50.90
46784;DHT22;32544;52.832;13.816;2023-07-31T00:46:13;25.60;50.90
46784;DHT22;32544;52.832;13.816;2023-07-31T00:47:15;25.60;50.90
46784;DHT22;32544;52.832;13.816;2023-07-31T00:48:15;25.60;50.90
46784;DHT22;32544;52.832;13.816;2023-07-31T00:49:16;25.70;50.90
46784;DHT22;32544;52.832;13.816;2023-07-31T00:50:16;25.60;50.90
46784;DHT22;32544;52.832;13.816;2023-07-31T00:51:17;25.60;50.80
46784;DHT22;32544;52.832;13.816;2023-07-31T00:52:18;25.60;50.80
46784;DHT22;32544;52.832;13.816;2023-07-31T00:53:19;25.60;50.80
46784;DHT22;32544;52.832;13.816;2023-07-31T00:54:19;25.60;50.80
46784;DHT22;32544;52.832;13.816;2023-07-31T00:55:20;25.60;50.90
46784;DHT22;32544;52.832;13.816;2023-07-31T00:56:22;25.60;50.90
46784;DHT22;32544;52.832;13.816;2023-07-31T00:57:24;25.60;50.80
46784;DHT22;32544;52.832;13.816;2023-07-31T00:58:25;25.60;50.80
46784;DHT22;32544;52.832;13.816;2023-07-31T00:59:26;25.60;50.90
46784;DHT22;32544;52.832;13.816;2023-07-31T01:00:27;25.60;50.90
46784;DHT22;32544;52.832;13.816;2023-07-31T01:01:27;25.60;50.80
46784;DHT22;32544;52.832;13.816;2023-07-31T01:02:28;25.60;50.80
46784;DHT22;32544;52.832;13.816;2023-07-31T01:03:28;25.60;50.80
46784;DHT22;32544;52.832;13.816;2023-07-31T01:04:29;25.60;50.90
46784;DHT22;32544;52.832;13.816;2023-07-31T01:05:55;25.60;50.80
46784;DHT22;32544;52.832;13.816;2023-07-31T01:07:01;25.60;50.80
46784;DHT22;32544;52.832;13.816;2023-07-31T01:08:04;25.60;50.90
46784;DHT22;32544;52.832;13.816;2023-07-31T01:12:14;25.60;50.90
46784;DHT22;32544;52.832;13.816;2023-07-31T01:13:15;25.60;50.90
46784;DHT22;32544;52.832;13.816;2023-07-31T01:14:15;25.60;50.90
46784;DHT22;32544;52.832;13.816;2023-07-31T01:15:16;25.60;50.90
46784;DHT22;32544;52.832;13.816;2023-07-31T01:16:17;25.60;51.20
46784;DHT22;32544;52.832;13.816;2023-07-31T01:17:18;25.60;50.90
46784;DHT22;32544;52.832;13.816;2023-07-31T01:18:19;25.60;50.90
46784;DHT22;32544;52.832;13.816;2023-07-31T01:19:22;25.60;50.90
46784;DHT22;32544;52.832;13.816;2023-07-31T01:20:24;25.60;50.90
46784;DHT22;32544;52.832;13.816;2023-07-31T01:23:52;25.60;50.90
46784;DHT22;32544;52.832;13.816;2023-07-31T01:26:05;25.60;51.00
46784;DHT22;32544;52.832;13.816;2023-07-31T01:27:13;25.60;50.90
46784;DHT22;32544;52.832;13.816;2023-07-31T01:28:17;25.60;50.90
46784;DHT22;32544;52.832;13.816;2023-07-31T01:29:29;25.60;50.90
46784;DHT22;32544;52.832;13.816;2023-07-31T01:30:33;25.60;50.90
46784;DHT22;32544;52.832;13.816;2023-07-31T01:31:36;25.60;50.80
46784;DHT22;32544;52.832;13.816;2023-07-31T01:32:39;25.60;50.90
46784;DHT22;32544;52.832;13.816;2023-07-31T01:33:40;25.60;50.90
46784;DHT22;32544;52.832;13.816;2023-07-31T01:34:41;25.60;50.90
46784;DHT22;32544;52.832;13.816;2023-07-31T01:35:43;25.60;50.80
46784;DHT22;32544;52.832;13.816;2023-07-31T01:36:44;25.60;50.90
46784;DHT22;32544;52.832;13.816;2023-07-31T01:37:45;25.60;50.80
46784;DHT22;32544;52.832;13.816;2023-07-31T01:38:45;25.60;50.80
46784;DHT22;32544;52.832;13.816;2023-07-31T01:39:46;25.60;50.90
46784;DHT22;32544;52.832;13.816;2023-07-31T01:40:49;25.60;50.80
46784;DHT22;32544;52.832;13.816;2023-07-31T01:41:51;25.60;50.90
46784;DHT22;32544;52.832;13.816;2023-07-31T01:42:51;25.60;50.80
46784;DHT22;32544;52.832;13.816;2023-07-31T01:43:52;25.60;50.80
46784;DHT22;32544;52.832;13.816;2023-07-31T01:44:52;25.60;50.80
46784;DHT22;32544;52.832;13.816;2023-07-31T01:45:54;25.60;50.80
46784;DHT22;32544;52.832;13.816;2023-07-31T01:46:54;25.60;50.80
46784;DHT22;32544;52.832;13.816;2023-07-31T01:47:55;25.60;50.80
46784;DHT22;32544;52.832;13.816;2023-07-31T01:48:55;25.60;50.80
46784;DHT22;32544;52.832;13.816;2023-07-31T01:49:56;25.60;51.50
46784;DHT22;32544;52.832;13.816;2023-07-31T01:51:00;25.60;50.80
46784;DHT22;32544;52.832;13.816;2023-07-31T01:52:00;25.50;50.70
46784;DHT22;32544;52.832;13.816;2023-07-31T01:53:01;25.50;50.80
46784;DHT22;32544;52.832;13.816;2023-07-31T01:54:01;25.50;50.70
46784;DHT22;32544;52.832;13.816;2023-07-31T01:55:02;25.50;50.70
46784;DHT22;32544;52.832;13.816;2023-07-31T01:56:03;25.50;50.70
46784;DHT22;32544;52.832;13.816;2023-07-31T01:57:05;25.50;50.80
46784;DHT22;32544;52.832;13.816;2023-07-31T01:58:05;25.50;50.80
46784;DHT22;32544;52.832;13.816;2023-07-31T01:59:06;25.60;50.90
46784;DHT22;32544;52.832;13.816;2023-07-31T02:00:07;25.60;50.90
46784;DHT22;32544;52.832;13.816;2023-07-31T02:01:12;25.60;50.90
46784;DHT22;32544;52.832;13.816;2023-07-31T02:02:13;25.60;50.80
46784;DHT22;32544;52.832;13.816;2023-07-31T02:03:13;25.60;50.80
46784;DHT22;32544;52.832;13.816;2023-07-31T02:04:14;25.60;50.90
46784;DHT22;32544;52.832;13.816;2023-07-31T02:05:14;25.60;50.90
46784;DHT22;32544;52.832;13.816;2023-07-31T02:06:15;25.60;50.80
46784;DHT22;32544;52.832;13.816;2023-07-31T02:07:16;25.60;50.90
46784;DHT22;32544;52.832;13.816;2023-07-31T02:08:16;25.60;50.80
46784;DHT22;32544;52.832;13.816;2023-07-31T02:09:17;25.50;50.70
46784;DHT22;32544;52.832;13.816;2023-07-31T02:10:18;25.60;50.80
46784;DHT22;32544;52.832;13.816;2023-07-31T02:11:18;25.60;50.80
46784;DHT22;32544;52.832;13.816;2023-07-31T02:12:19;25.60;50.80
46784;DHT22;32544;52.832;13.816;2023-07-31T02:13:20;25.60;50.80
46784;DHT22;32544;52.832;13.816;2023-07-31T02:14:20;25.60;50.80
46784;DHT22;32544;52.832;13.816;2023-07-31T02:15:21;25.60;50.90
46784;DHT22;32544;52.832;13.816;2023-07-31T02:16:21;25.60;50.90
46784;DHT22;32544;52.832;13.816;2023-07-31T02:17:22;25.60;50.80
46784;DHT22;32544;52.832;13.816;2023-07-31T02:18:22;25.60;50.80
46784;DHT22;32544;52.832;13.816;2023-07-31T02:19:23;25.60;50.80
46784;DHT22;32544;52.832;13.816;2023-07-31T02:20:24;25.60;50.80
46784;DHT22;32544;52.832;13.816;2023-07-31T02:21:25;25.60;50.80
46784;DHT22;32544;52.832;13.816;2023-07-31T02:22:25;25.50;50.80
46784;DHT22;32544;52.832;13.816;2023-07-31T02:23:26;25.60;50.80
46784;DHT22;32544;52.832;13.816;2023-07-31T02:24:26;25.50;50.80
46784;DHT22;32544;52.832;13.816;2023-07-31T02:25:27;25.50;50.80
46784;DHT22;32544;52.832;13.816;2023-07-31T02:26:27;25.50;50.80
46784;DHT22;32544;52.832;13.816;2023-07-31T02:27:28;25.50;50.90
46784;DHT22;32544;52.832;13.816;2023-07-31T02:28:29;25.50;50.90
46784;DHT22;32544;52.832;13.816;2023-07-31T02:29:30;25.50;50.90
46784;DHT22;32544;52.832;13.816;2023-07-31T02:30:30;25.40;50.90
46784;DHT22;32544;52.832;13.816;2023-07-31T02:31:31;25.40;50.80
46784;DHT22;32544;52.832;13.816;2023-07-31T02:32:31;25.40;50.90
46784;DHT22;32544;52.832;13.816;2023-07-31T02:33:32;25.40;50.90
46784;DHT22;32544;52.832;13.816;2023-07-31T02:34:32;25.40;50.90
46784;DHT22;32544;52.832;13.816;2023-07-31T02:35:33;25.40;50.90
46784;DHT22;32544;52.832;13.816;2023-07-31T02:36:34;25.40;50.90
46784;DHT22;32544;52.832;13.816;2023-07-31T02:37:35;25.40;51.00
46784;DHT22;32544;52.832;13.816;2023-07-31T02:38:36;25.40;51.00
46784;DHT22;32544;52.832;13.816;2023-07-31T02:39:37;25.40;50.90
46784;DHT22;32544;52.832;13.816;2023-07-31T02:40:39;25.40;50.90
46784;DHT22;32544;52.832;13.816;2023-07-31T02:41:40;25.40;51.00
46784;DHT22;32544;52.832;13.816;2023-07-31T02:42:40;25.40;51.00
46784;DHT22;32544;52.832;13.816;2023-07-31T02:43:41;25.40;51.00
46784;DHT22;32544;52.832;13.816;2023-07-31T02:44:41;25.40;51.00
46784;DHT22;32544;52.832;13.816;2023-07-31T02:45:42;25.40;51.00
46784;DHT22;32544;52.832;13.816;2023-07-31T02:46:42;25.40;51.00
46784;DHT22;32544;52.832;13.816;2023-07-31T02:47:43;25.40;51.00
46784;DHT22;32544;52.832;13.816;2023-07-31T02:48:44;25.40;51.00
46784;DHT22;32544;52.832;13.816;2023-07-31T02:49:44;25.40;51.00
46784;DHT22;32544;52.832;13.816;2023-07-31T02:50:45;25.40;51.00
46784;DHT22;32544;52.832;13.816;2023-07-31T02:51:46;25.40;51.00
46784;DHT22;32544;52.832;13.816;2023-07-31T02:52:46;25.40;51.00
46784;DHT22;32544;52.832;13.816;2023-07-31T02:53:47;25.40;51.00
46784;DHT22;32544;52.832;13.816;2023-07-31T02:54:48;25.30;51.00
46784;DHT22;32544;52.832;13.816;2023-07-31T02:55:48;25.40;51.00
46784;DHT22;32544;52.832;13.816;2023-07-31T02:56:49;25.40;51.00
46784;DHT22;32544;52.832;13.816;2023-07-31T02:57:49;25.40;51.00
46784;DHT22;32544;52.832;13.816;2023-07-31T02:58:52;25.40;51.00
46784;DHT22;32544;52.832;13.816;2023-07-31T02:59:53;25.40;51.00
46784;DHT22;32544;52.832;13.816;2023-07-31T03:00:53;25.40;50.90
46784;DHT22;32544;52.832;13.816;2023-07-31T03:01:54;25.40;51.00
46784;DHT22;32544;52.832;13.816;2023-07-31T03:02:54;25.40;51.00
46784;DHT22;32544;52.832;13.816;2023-07-31T03:03:55;25.40;51.00
46784;DHT22;32544;52.832;13.816;2023-07-31T03:04:56;25.40;51.00
46784;DHT22;32544;52.832;13.816;2023-07-31T03:05:56;25.40;51.00
46784;DHT22;32544;52.832;13.816;2023-07-31T03:06:58;25.40;51.00
46784;DHT22;32544;52.832;13.816;2023-07-31T03:07:59;25.40;51.00
46784;DHT22;32544;52.832;13.816;2023-07-31T03:08:59;25.30;50.90
46784;DHT22;32544;52.832;13.816;2023-07-31T03:10:00;25.30;51.00
46784;DHT22;32544;52.832;13.816;2023-07-31T03:11:01;25.30;51.00
46784;DHT22;32544;52.832;13.816;2023-07-31T03:12:02;25.30;51.00
46784;DHT22;32544;52.832;13.816;2023-07-31T03:13:03;25.40;51.00
46784;DHT22;32544;52.832;13.816;2023-07-31T03:14:04;25.30;51.00
46784;DHT22;32544;52.832;13.816;2023-07-31T03:15:04;25.30;51.00
46784;DHT22;32544;52.832;13.816;2023-07-31T03:16:05;25.30;51.10
46784;DHT22;32544;52.832;13.816;2023-07-31T03:17:06;25.40;51.10
46784;DHT22;32544;52.832;13.816;2023-07-31T03:18:06;25.40;51.10
46784;DHT22;32544;52.832;13.816;2023-07-31T03:19:07;25.30;51.00
46784;DHT22;32544;52.832;13.816;2023-07-31T03:20:07;25.30;51.00
46784;DHT22;32544;52.832;13.816;2023-07-31T03:21:08;25.30;51.00
46784;DHT22;32544;52.832;13.816;2023-07-31T03:22:09;25.30;51.00
46784;DHT22;32544;52.832;13.816;2023-07-31T03:23:10;25.40;51.10
46784;DHT22;32544;52.832;13.816;2023-07-31T03:24:11;25.30;51.10
46784;DHT22;32544;52.832;13.816;2023-07-31T03:25:12;25.30;51.10
46784;DHT22;32544;52.832;13.816;2023-07-31T03:26:13;25.30;51.20
46784;DHT22;32544;52.832;13.816;2023-07-31T03:27:14;25.30;51.10
46784;DHT22;32544;52.832;13.816;2023-07-31T03:28:14;25.30;51.10
46784;DHT22;32544;52.832;13.816;2023-07-31T03:29:15;25.30;51.20
46784;DHT22;32544;52.832;13.816;2023-07-31T03:30:16;25.30;51.20
46784;DHT22;32544;52.832;13.816;2023-07-31T03:31:16;25.30;51.20
46784;DHT22;32544;52.832;13.816;2023-07-31T03:32:17;25.30;51.20
46784;DHT22;32544;52.832;13.816;2023-07-31T03:33:18;25.30;51.20
46784;DHT22;32544;52.832;13.816;2023-07-31T03:34:18;25.30;51.20
46784;DHT22;32544;52.832;13.816;2023-07-31T03:35:19;25.30;51.20
46784;DHT22;32544;52.832;13.816;2023-07-31T03:36:19;25.30;51.20
46784;DHT22;32544;52.832;13.816;2023-07-31T03:37:20;25.30;51.20
46784;DHT22;32544;52.832;13.816;2023-07-31T03:38:20;25.30;51.20
46784;DHT22;32544;52.832;13.816;2023-07-31T03:39:21;25.30;51.20
46784;DHT22;32544;52.832;13.816;2023-07-31T03:40:22;25.40;51.20
46784;DHT22;32544;52.832;13.816;2023-07-31T03:41:22;25.30;51.20
46784;DHT22;32544;52.832;13.816;2023-07-31T03:42:23;25.30;51.20
46784;DHT22;32544;52.832;13.816;2023-07-31T03:43:25;25.30;51.20
46784;DHT22;32544;52.832;13.816;2023-07-31T03:44:26;25.40;51.20
46784;DHT22;32544;52.832;13.816;2023-07-31T03:45:26;25.30;51.10
46784;DHT22;32544;52.832;13.816;2023-07-31T03:46:27;25.30;51.10
46784;DHT22;32544;52.832;13.816;2023-07-31T03:47:28;25.40;51.20
46784;DHT22;32544;52.832;13.816;2023-07-31T03:48:29;25.40;51.20
46784;DHT22;32544;52.832;13.816;2023-07-31T03:49:29;25.40;51.20
46784;DHT22;32544;52.832;13.816;2023-07-31T03:50:30;25.40;51.10
46784;DHT22;32544;52.832;13.816;2023-07-31T03:51:30;25.40;51.10
46784;DHT22;32544;52.832;13.816;2023-07-31T03:52:31;25.40;51.10
46784;DHT22;32544;52.832;13.816;2023-07-31T03:53:32;25.40;51.10
46784;DHT22;32544;52.832;13.816;2023-07-31T03:54:32;25.40;51.10
46784;DHT22;32544;52.832;13.816;2023-07-31T03:55:33;25.40;51.10
46784;DHT22;32544;52.832;13.816;2023-07-31T03:56:33;25.40;51.10
46784;DHT22;32544;52.832;13.816;2023-07-31T03:57:34;25.40;51.70
46784;DHT22;32544;52.832;13.816;2023-07-31T03:58:35;25.40;51.10
46784;DHT22;32544;52.832;13.816;2023-07-31T03:59:37;25.40;51.10
46784;DHT22;32544;52.832;13.816;2023-07-31T04:00:39;25.40;51.20
46784;DHT22;32544;52.832;13.816;2023-07-31T04:01:40;25.40;51.10
46784;DHT22;32544;52.832;13.816;2023-07-31T04:02:41;25.40;51.10
46784;DHT22;32544;52.832;13.816;2023-07-31T04:03:41;25.40;51.10
46784;DHT22;32544;52.832;13.816;2023-07-31T04:04:42;25.40;51.10
46784;DHT22;32544;52.832;13.816;2023-07-31T04:05:42;25.40;51.10
46784;DHT22;32544;52.832;13.816;2023-07-31T04:06:43;25.40;51.20
46784;DHT22;32544;52.832;13.816;2023-07-31T04:07:44;25.40;51.20
46784;DHT22;32544;52.832;13.816;2023-07-31T04:08:44;25.40;51.20
46784;DHT22;32544;52.832;13.816;2023-07-31T04:09:48;25.40;51.20
46784;DHT22;32544;52.832;13.816;2023-07-31T04:10:48;25.40;51.20
46784;DHT22;32544;52.832;13.816;2023-07-31T04:11:49;25.40;51.20
46784;DHT22;32544;52.832;13.816;2023-07-31T04:12:49;25.40;51.20
46784;DHT22;32544;52.832;13.816;2023-07-31T04:13:50;25.40;51.20
46784;DHT22;32544;52.832;13.816;2023-07-31T04:14:51;25.40;51.20
46784;DHT22;32544;52.832;13.816;2023-07-31T04:15:51;25.40;51.20
46784;DHT22;32544;52.832;13.816;2023-07-31T04:16:52;25.40;51.20
46784;DHT22;32544;52.832;13.816;2023-07-31T04:17:52;25.40;51.20
46784;DHT22;32544;52.832;13.816;2023-07-31T04:18:53;25.40;51.20
46784;DHT22;32544;52.832;13.816;2023-07-31T04:19:54;25.40;51.20
46784;DHT22;32544;52.832;13.816;2023-07-31T04:20:54;25.40;51.20
46784;DHT22;32544;52.832;13.816;2023-07-31T04:21:55;25.40;51.20
46784;DHT22;32544;52.832;13.816;2023-07-31T04:22:55;25.40;51.20
46784;DHT22;32544;52.832;13.816;2023-07-31T04:23:56;25.40;51.20
46784;DHT22;32544;52.832;13.816;2023-07-31T04:24:57;25.40;51.30
46784;DHT22;32544;52.832;13.816;2023-07-31T04:25:57;25.40;51.20
46784;DHT22;32544;52.832;13.816;2023-07-31T04:26:58;25.40;51.30
46784;DHT22;32544;52.832;13.816;2023-07-31T04:27:58;25.40;51.20
46784;DHT22;32544;52.832;13.816;2023-07-31T04:28:59;25.40;51.20
46784;DHT22;32544;52.832;13.816;2023-07-31T04:30:00;25.40;51.20
46784;DHT22;32544;52.832;13.816;2023-07-31T04:31:00;25.40;51.20
46784;DHT22;32544;52.832;13.816;2023-07-31T04:32:01;25.40;51.20
46784;DHT22;32544;52.832;13.816;2023-07-31T04:33:01;25.40;51.20
46784;DHT22;32544;52.832;13.816;2023-07-31T04:34:02;25.40;51.20
46784;DHT22;32544;52.832;13.816;2023-07-31T04:35:03;25.40;51.20
46784;DHT22;32544;52.832;13.816;2023-07-31T04:36:04;25.40;51.20
46784;DHT22;32544;52.832;13.816;2023-07-31T04:37:05;25.40;51.20
46784;DHT22;32544;52.832;13.816;2023-07-31T04:38:05;25.40;51.20
46784;DHT22;32544;52.832;13.816;2023-07-31T04:39:06;25.40;51.20
46784;DHT22;32544;52.832;13.816;2023-07-31T04:40:07;25.40;51.20
46784;DHT22;32544;52.832;13.816;2023-07-31T04:41:08;25.40;51.20
46784;DHT22;32544;52.832;13.816;2023-07-31T04:42:09;25.40;51.20
46784;DHT22;32544;52.832;13.816;2023-07-31T04:43:09;25.40;51.20
46784;DHT22;32544;52.832;13.816;2023-07-31T04:44:10;25.40;51.20
46784;DHT22;32544;52.832;13.816;2023-07-31T04:45:11;25.40;51.80
46784;DHT22;32544;52.832;13.816;2023-07-31T04:46:12;25.40;51.20
46784;DHT22;32544;52.832;13.816;2023-07-31T04:47:12;25.40;51.20
46784;DHT22;32544;52.832;13.816;2023-07-31T04:48:13;25.40;51.20
46784;DHT22;32544;52.832;13.816;2023-07-31T04:49:14;25.40;51.20
46784;DHT22;32544;52.832;13.816;2023-07-31T04:50:15;25.30;51.20
46784;DHT22;32544;52.832;13.816;2023-07-31T04:51:15;25.40;51.30
46784;DHT22;32544;52.832;13.816;2023-07-31T04:52:16;25.40;51.20
46784;DHT22;32544;52.832;13.816;2023-07-31T04:53:16;25.40;51.30
46784;DHT22;32544;52.832;13.816;2023-07-31T04:54:17;25.40;51.30
46784;DHT22;32544;52.832;13.816;2023-07-31T04:55:17;25.40;51.30
46784;DHT22;32544;52.832;13.816;2023-07-31T04:56:18;25.40;51.30
46784;DHT22;32544;52.832;13.816;2023-07-31T04:57:19;25.40;51.30
46784;DHT22;32544;52.832;13.816;2023-07-31T04:58:19;25.40;51.40
46784;DHT22;32544;52.832;13.816;2023-07-31T04:59:20;25.40;51.40
46784;DHT22;32544;52.832;13.816;2023-07-31T05:00:20;25.40;51.30
46784;DHT22;32544;52.832;13.816;2023-07-31T05:01:21;25.40;51.40
46784;DHT22;32544;52.832;13.816;2023-07-31T05:02:21;25.40;51.40
46784;DHT22;32544;52.832;13.816;2023-07-31T05:03:22;25.40;51.40
46784;DHT22;32544;52.832;13.816;2023-07-31T05:04:23;25.40;51.40
46784;DHT22;32544;52.832;13.816;2023-07-31T05:05:23;25.40;51.40
46784;DHT22;32544;52.832;13.816;2023-07-31T05:06:24;25.40;51.40
46784;DHT22;32544;52.832;13.816;2023-07-31T05:07:24;25.40;51.40
46784;DHT22;32544;52.832;13.816;2023-07-31T05:08:25;25.40;51.40
46784;DHT22;32544;52.832;13.816;2023-07-31T05:09:25;25.40;51.40
46784;DHT22;32544;52.832;13.816;2023-07-31T05:10:26;25.40;51.40
46784;DHT22;32544;52.832;13.816;2023-07-31T05:11:26;25.30;51.40
46784;DHT22;32544;52.832;13.816;2023-07-31T05:12:27;25.30;51.50
46784;DHT22;32544;52.832;13.816;2023-07-31T05:13:28;25.30;51.50
46784;DHT22;32544;52.832;13.816;2023-07-31T05:14:28;25.30;51.50
46784;DHT22;32544;52.832;13.816;2023-07-31T05:15:29;25.30;51.50
46784;DHT22;32544;52.832;13.816;2023-07-31T05:16:29;25.30;51.50
46784;DHT22;32544;52.832;13.816;2023-07-31T05:17:30;25.30;51.50
46784;DHT22;32544;52.832;13.816;2023-07-31T05:18:31;25.30;51.60
46784;DHT22;32544;52.832;13.816;2023-07-31T05:19:31;25.30;51.60
46784;DHT22;32544;52.832;13.816;2023-07-31T05:20:32;25.30;51.60
46784;DHT22;32544;52.832;13.816;2023-07-31T05:21:32;25.30;51.60
46784;DHT22;32544;52.832;13.816;2023-07-31T05:22:33;25.30;51.60
46784;DHT22;32544;52.832;13.816;2023-07-31T05:23:33;25.30;51.60
46784;DHT22;32544;52.832;13.816;2023-07-31T05:24:34;25.30;51.60
46784;DHT22;32544;52.832;13.816;2023-07-31T05:25:34;25.30;51.60
46784;DHT22;32544;52.832;13.816;2023-07-31T05:26:35;25.30;51.60
46784;DHT22;32544;52.832;13.816;2023-07-31T05:27:36;25.30;51.60
46784;DHT22;32544;52.832;13.816;2023-07-31T05:28:36;25.30;51.60
46784;DHT22;32544;52.832;13.816;2023-07-31T05:29:37;25.30;51.60
46784;DHT22;32544;52.832;13.816;2023-07-31T05:30:37;25.30;51.50
46784;DHT22;32544;52.832;13.816;2023-07-31T05:31:38;25.30;51.60
46784;DHT22;32544;52.832;13.816;2023-07-31T05:32:39;25.30;51.60
46784;DHT22;32544;52.832;13.816;2023-07-31T05:33:39;25.30;51.60
46784;DHT22;32544;52.832;13.816;2023-07-31T05:34:40;25.30;51.60
46784;DHT22;32544;52.832;13.816;2023-07-31T05:35:40;25.30;51.60
46784;DHT22;32544;52.832;13.816;2023-07-31T05:36:41;25.30;51.60
46784;DHT22;32544;52.832;13.816;2023-07-31T05:37:42;25.30;51.60
46784;DHT22;32544;52.832;13.816;2023-07-31T05:38:42;25.30;51.60
46784;DHT22;32544;52.832;13.816;2023-07-31T05:39:46;25.30;51.60
46784;DHT22;32544;52.832;13.816;2023-07-31T05:40:47;25.30;51.60
46784;DHT22;32544;52.832;13.816;2023-07-31T05:41:48;25.30;51.70
46784;DHT22;32544;52.832;13.816;2023-07-31T05:42:48;25.30;51.80
46784;DHT22;32544;52.832;13.816;2023-07-31T05:43:49;25.30;51.80
46784;DHT22;32544;52.832;13.816;2023-07-31T05:44:49;25.30;51.80
46784;DHT22;32544;52.832;13.816;2023-07-31T05:45:50;25.30;51.80
46784;DHT22;32544;52.832;13.816;2023-07-31T05:46:51;25.30;51.80
46784;DHT22;32544;52.832;13.816;2023-07-31T05:47:52;25.30;51.70
46784;DHT22;32544;52.832;13.816;2023-07-31T05:48:52;25.30;51.70
46784;DHT22;32544;52.832;13.816;2023-07-31T05:49:53;25.30;51.70
46784;DHT22;32544;52.832;13.816;2023-07-31T05:50:53;25.30;51.70
46784;DHT22;32544;52.832;13.816;2023-07-31T05:51:54;25.30;51.70
46784;DHT22;32544;52.832;13.816;2023-07-31T05:52:55;25.30;51.70
46784;DHT22;32544;52.832;13.816;2023-07-31T05:53:55;25.30;51.70
46784;DHT22;32544;52.832;13.816;2023-07-31T05:54:56;25.30;51.70
46784;DHT22;32544;52.832;13.816;2023-07-31T05:55:56;25.30;51.80
46784;DHT22;32544;52.832;13.816;2023-07-31T05:56:57;25.30;51.80
46784;DHT22;32544;52.832;13.816;2023-07-31T05:57:57;25.30;51.80
46784;DHT22;32544;52.832;13.816;2023-07-31T05:58:58;25.30;51.80
46784;DHT22;32544;52.832;13.816;2023-07-31T05:59:59;25.30;51.80
46784;DHT22;32544;52.832;13.816;2023-07-31T06:00:59;25.30;51.80
46784;DHT22;32544;52.832;13.816;2023-07-31T06:02:00;25.30;51.90
46784;DHT22;32544;52.832;13.816;2023-07-31T06:03:00;25.30;51.90
46784;DHT22;32544;52.832;13.816;2023-07-31T06:04:01;25.30;51.90
46784;DHT22;32544;52.832;13.816;2023-07-31T06:05:04;25.20;51.90
46784;DHT22;32544;52.832;13.816;2023-07-31T06:06:06;25.30;51.90
46784;DHT22;32544;52.832;13.816;2023-07-31T06:07:06;25.30;51.90
46784;DHT22;32544;52.832;13.816;2023-07-31T06:08:07;25.30;51.90
46784;DHT22;32544;52.832;13.816;2023-07-31T06:09:07;25.30;51.90
46784;DHT22;32544;52.832;13.816;2023-07-31T06:10:08;25.30;51.90
46784;DHT22;32544;52.832;13.816;2023-07-31T06:11:09;25.30;52.00
46784;DHT22;32544;52.832;13.816;2023-07-31T06:12:10;25.30;52.00
46784;DHT22;32544;52.832;13.816;2023-07-31T06:13:10;25.30;52.00
46784;DHT22;32544;52.832;13.816;2023-07-31T06:14:11;25.30;52.00
46784;DHT22;32544;52.832;13.816;2023-07-31T06:15:12;25.30;52.00
46784;DHT22;32544;52.832;13.816;2023-07-31T06:16:12;25.30;52.00
46784;DHT22;32544;52.832;13.816;2023-07-31T06:17:13;25.30;52.10
46784;DHT22;32544;52.832;13.816;2023-07-31T06:18:13;25.30;52.00
46784;DHT22;32544;52.832;13.816;2023-07-31T06:19:14;25.30;52.00
46784;DHT22;32544;52.832;13.816;2023-07-31T06:20:14;25.30;52.10
46784;DHT22;32544;52.832;13.816;2023-07-31T06:21:15;25.30;52.10
46784;DHT22;32544;52.832;13.816;2023-07-31T06:22:15;25.30;52.10
46784;DHT22;32544;52.832;13.816;2023-07-31T06:23:16;25.30;52.10
46784;DHT22;32544;52.832;13.816;2023-07-31T06:24:18;25.30;52.10
46784;DHT22;32544;52.832;13.816;2023-07-31T06:25:21;25.30;52.00